createdAt,value
2022-12-01T00:01:09.378Z,3.40
2022-12-01T00:02:31.578Z,3.40
2022-12-01T00:03:54.414Z,3.40
2022-12-01T00:05:16.520Z,3.30
2022-12-01T00:06:38.598Z,3.30
2022-12-01T00:08:00.818Z,3.30
2022-12-01T00:09:41.616Z,3.30
2022-12-01T00:11:09.870Z,3.30
2022-12-01T00:12:31.945Z,3.30
2022-12-01T00:13:54.001Z,3.20
2022-12-01T00:15:16.117Z,3.30
2022-12-01T00:16:40.372Z,3.30
2022-12-01T00:18:04.281Z,3.30
2022-12-01T00:19:26.911Z,3.30
2022-12-01T00:20:55.866Z,3.20
2022-12-01T00:22:17.917Z,3.20
2022-12-01T00:23:47.577Z,3.20
2022-12-01T00:25:09.987Z,3.20
2022-12-01T00:26:32.028Z,3.20
2022-12-01T00:27:54.909Z,3.20
2022-12-01T00:29:16.941Z,3.20
2022-12-01T00:30:38.942Z,3.20
2022-12-01T00:32:01.093Z,3.20
2022-12-01T00:33:23.332Z,3.10
2022-12-01T00:34:45.454Z,3.10
2022-12-01T00:36:07.871Z,3.10
2022-12-01T00:37:31.630Z,3.10
2022-12-01T00:38:55.229Z,3.10
2022-12-01T00:40:17.338Z,3.10
2022-12-01T00:41:39.376Z,3.00
2022-12-01T00:43:01.413Z,3.00
2022-12-01T00:44:23.611Z,3.00
2022-12-01T00:45:45.741Z,3.00
2022-12-01T00:47:08.016Z,3.00
2022-12-01T00:48:30.180Z,2.90
2022-12-01T00:49:52.374Z,3.00
2022-12-01T00:51:14.423Z,2.90
2022-12-01T00:52:51.766Z,2.90
2022-12-01T00:54:13.865Z,2.90
2022-12-01T00:55:35.961Z,3.00
2022-12-01T00:57:01.373Z,2.90
2022-12-01T00:58:24.567Z,2.90
2022-12-01T00:59:47.234Z,2.90
2022-12-01T01:01:09.623Z,2.90
2022-12-01T01:02:32.031Z,3.00
2022-12-01T01:03:54.144Z,3.00
2022-12-01T01:05:16.228Z,3.00
2022-12-01T01:06:38.294Z,3.00
2022-12-01T01:08:00.404Z,3.00
2022-12-01T01:09:22.529Z,3.00
2022-12-01T01:10:47.020Z,3.00
2022-12-01T01:12:09.104Z,3.00
2022-12-01T01:13:31.256Z,3.00
2022-12-01T01:14:53.439Z,3.00
2022-12-01T01:16:21.391Z,3.00
2022-12-01T01:17:43.505Z,3.00
2022-12-01T01:19:05.601Z,2.90
2022-12-01T01:20:27.747Z,2.90
2022-12-01T01:21:49.916Z,2.90
2022-12-01T01:23:11.935Z,2.90
2022-12-01T01:24:34.054Z,2.90
2022-12-01T01:26:03.018Z,2.90
2022-12-01T01:27:25.050Z,2.90
2022-12-01T01:28:48.057Z,2.90
2022-12-01T01:30:10.759Z,2.90
2022-12-01T01:31:32.835Z,2.90
2022-12-01T01:32:54.918Z,2.90
2022-12-01T01:34:17.050Z,2.90
2022-12-01T01:35:39.069Z,2.90
2022-12-01T01:37:01.120Z,2.80
2022-12-01T01:38:23.396Z,2.80
2022-12-01T01:39:46.003Z,2.80
2022-12-01T01:41:08.701Z,2.90
2022-12-01T01:42:30.695Z,2.90
2022-12-01T01:43:57.383Z,2.90
2022-12-01T01:45:29.606Z,2.80
2022-12-01T01:46:51.675Z,2.80
2022-12-01T01:48:14.349Z,2.80
2022-12-01T01:49:36.559Z,2.80
2022-12-01T01:50:58.745Z,2.80
2022-12-01T01:52:22.511Z,2.80
2022-12-01T01:53:46.520Z,2.80
2022-12-01T01:55:09.316Z,2.80
2022-12-01T01:56:32.008Z,2.80
2022-12-01T01:57:54.092Z,2.80
2022-12-01T01:59:21.504Z,2.80
2022-12-01T02:00:45.108Z,2.80
2022-12-01T02:02:09.688Z,2.80
2022-12-01T02:03:32.657Z,2.80
2022-12-01T02:05:02.476Z,2.80
2022-12-01T02:06:24.648Z,2.80
2022-12-01T02:07:47.475Z,2.80
2022-12-01T02:09:12.261Z,2.80
2022-12-01T02:10:34.263Z,2.80
2022-12-01T02:12:11.284Z,2.80
2022-12-01T02:13:51.395Z,2.80
2022-12-01T02:15:26.021Z,2.80
2022-12-01T02:17:01.888Z,2.80
2022-12-01T02:19:02.270Z,2.80
2022-12-01T02:20:36.459Z,2.80
2022-12-01T02:22:35.525Z,2.90
2022-12-01T02:24:00.152Z,2.90
2022-12-01T02:25:27.598Z,2.90
2022-12-01T02:27:11.524Z,2.90
2022-12-01T02:28:51.888Z,2.80
2022-12-01T02:30:37.216Z,2.90
2022-12-01T02:32:05.335Z,2.80
2022-12-01T02:33:40.679Z,2.90
2022-12-01T02:35:27.571Z,2.90
2022-12-01T02:36:57.172Z,2.80
2022-12-01T02:38:28.193Z,2.90
2022-12-01T02:40:00.368Z,2.90
2022-12-01T02:41:32.785Z,2.90
2022-12-01T02:43:03.543Z,2.90
2022-12-01T02:44:38.928Z,2.90
2022-12-01T02:46:11.726Z,2.90
2022-12-01T02:47:36.412Z,2.90
2022-12-01T02:49:02.555Z,2.90
2022-12-01T02:50:27.032Z,2.90
2022-12-01T02:51:50.979Z,2.90
2022-12-01T02:53:17.562Z,2.90
2022-12-01T02:54:41.089Z,2.80
2022-12-01T02:56:07.377Z,2.80
2022-12-01T02:57:30.683Z,2.80
2022-12-01T02:58:52.916Z,2.80
2022-12-01T03:00:16.179Z,2.90
2022-12-01T03:02:15.553Z,2.90
2022-12-01T03:03:58.228Z,2.90
2022-12-01T03:05:35.078Z,2.90
2022-12-01T03:07:15.892Z,2.90
2022-12-01T03:09:06.945Z,2.90
2022-12-01T03:10:53.681Z,2.90
2022-12-01T03:12:40.528Z,2.90
2022-12-01T03:14:17.811Z,2.80
2022-12-01T03:15:55.928Z,2.90
2022-12-01T03:17:26.120Z,2.90
2022-12-01T03:19:00.791Z,2.90
2022-12-01T03:20:36.426Z,2.90
2022-12-01T03:22:31.848Z,2.90
2022-12-01T03:24:00.834Z,2.90
2022-12-01T03:25:26.224Z,2.90
2022-12-01T03:26:52.175Z,2.90
2022-12-01T03:28:21.531Z,2.90
2022-12-01T03:29:49.613Z,2.90
2022-12-01T03:31:20.867Z,2.90
2022-12-01T03:32:58.416Z,2.90
2022-12-01T03:34:35.046Z,2.90
2022-12-01T03:36:27.042Z,2.90
2022-12-01T03:38:02.754Z,2.90
2022-12-01T03:39:32.684Z,2.90
2022-12-01T03:41:00.591Z,2.90
2022-12-01T03:42:36.753Z,2.90
2022-12-01T03:44:07.834Z,2.90
2022-12-01T03:46:00.182Z,2.90
2022-12-01T03:47:31.918Z,2.90
2022-12-01T03:48:54.300Z,2.90
2022-12-01T03:50:18.600Z,2.90
2022-12-01T03:51:56.090Z,2.90
2022-12-01T03:53:24.144Z,2.90
2022-12-01T03:55:17.561Z,2.90
2022-12-01T03:56:48.699Z,2.90
2022-12-01T03:58:12.641Z,2.90
2022-12-01T03:59:36.929Z,2.90
2022-12-01T04:00:59.933Z,2.90
2022-12-01T04:02:25.345Z,2.90
2022-12-01T04:03:47.695Z,2.90
2022-12-01T04:05:09.757Z,2.90
2022-12-01T04:06:32.420Z,2.90
2022-12-01T04:07:54.645Z,2.90
2022-12-01T04:09:16.812Z,2.90
2022-12-01T04:10:38.916Z,2.90
2022-12-01T04:12:19.534Z,2.80
2022-12-01T04:13:41.565Z,2.80
2022-12-01T04:15:08.013Z,2.80
2022-12-01T04:16:30.177Z,2.80
2022-12-01T04:17:52.300Z,2.80
2022-12-01T04:19:14.504Z,2.80
2022-12-01T04:20:36.521Z,2.80
2022-12-01T04:21:58.516Z,2.80
2022-12-01T04:23:39.373Z,2.80
2022-12-01T04:25:01.485Z,2.80
2022-12-01T04:26:23.503Z,2.80
2022-12-01T04:27:45.636Z,2.80
2022-12-01T04:29:09.774Z,2.80
2022-12-01T04:30:31.823Z,2.90
2022-12-01T04:31:53.960Z,2.80
2022-12-01T04:33:16.049Z,2.80
2022-12-01T04:34:39.714Z,2.80
2022-12-01T04:36:01.946Z,2.80
2022-12-01T04:37:24.041Z,2.80
2022-12-01T04:38:46.160Z,2.80
2022-12-01T04:40:09.180Z,2.80
2022-12-01T04:41:31.442Z,2.80
2022-12-01T04:42:53.481Z,2.80
2022-12-01T04:44:16.057Z,2.80
2022-12-01T04:45:38.807Z,2.80
2022-12-01T04:47:00.900Z,2.80
2022-12-01T04:48:23.044Z,2.80
2022-12-01T04:49:45.142Z,2.80
2022-12-01T04:51:08.627Z,2.80
2022-12-01T04:52:35.079Z,2.80
2022-12-01T04:53:57.845Z,2.80
2022-12-01T04:55:19.931Z,2.80
2022-12-01T04:56:42.394Z,2.80
2022-12-01T04:58:04.968Z,2.80
2022-12-01T04:59:27.047Z,2.80
2022-12-01T05:00:49.257Z,2.80
2022-12-01T05:02:11.384Z,2.80
2022-12-01T05:03:40.070Z,2.80
2022-12-01T05:05:02.168Z,2.80
2022-12-01T05:06:26.578Z,2.80
2022-12-01T05:07:48.620Z,2.80
2022-12-01T05:09:17.370Z,2.80
2022-12-01T05:10:40.094Z,2.80
2022-12-01T05:12:02.160Z,2.80
2022-12-01T05:13:24.488Z,2.80
2022-12-01T05:14:46.613Z,2.80
2022-12-01T05:16:17.928Z,2.80
2022-12-01T05:17:40.128Z,2.80
2022-12-01T05:19:23.406Z,2.80
2022-12-01T05:20:57.648Z,2.80
2022-12-01T05:22:31.466Z,2.80
2022-12-01T05:24:01.743Z,2.80
2022-12-01T05:25:23.749Z,2.80
2022-12-01T05:26:45.868Z,2.90
2022-12-01T05:28:08.085Z,2.90
2022-12-01T05:29:32.925Z,2.80
2022-12-01T05:30:55.896Z,2.90
2022-12-01T05:32:17.894Z,2.90
2022-12-01T05:33:40.009Z,2.80
2022-12-01T05:35:02.103Z,2.80
2022-12-01T05:36:24.447Z,2.80
2022-12-01T05:37:46.453Z,2.80
2022-12-01T05:39:08.487Z,2.80
2022-12-01T05:40:30.799Z,2.80
2022-12-01T05:41:53.840Z,2.80
2022-12-01T05:43:15.901Z,2.80
2022-12-01T05:44:37.989Z,2.80
2022-12-01T05:46:00.267Z,2.80
2022-12-01T05:47:22.348Z,2.80
2022-12-01T05:48:44.417Z,2.70
2022-12-01T05:50:07.347Z,2.70
2022-12-01T05:51:29.455Z,2.70
2022-12-01T05:52:51.755Z,2.70
2022-12-01T05:54:13.764Z,2.70
2022-12-01T05:55:35.891Z,2.70
2022-12-01T05:56:58.124Z,2.80
2022-12-01T05:58:21.496Z,2.80
2022-12-01T05:59:43.515Z,2.80
2022-12-01T06:01:06.048Z,2.80
2022-12-01T06:02:28.108Z,2.70
2022-12-01T06:03:50.195Z,2.70
2022-12-01T06:05:12.313Z,2.70
2022-12-01T06:06:34.392Z,2.70
2022-12-01T06:07:56.705Z,2.80
2022-12-01T06:09:19.192Z,2.80
2022-12-01T06:10:41.297Z,2.80
2022-12-01T06:12:03.558Z,2.70
2022-12-01T06:13:25.807Z,2.70
2022-12-01T06:14:47.869Z,2.80
2022-12-01T06:16:09.921Z,2.80
2022-12-01T06:17:35.741Z,2.80
2022-12-01T06:19:01.930Z,2.70
2022-12-01T06:20:23.979Z,2.70
2022-12-01T06:21:46.017Z,2.70
2022-12-01T06:23:08.064Z,2.70
2022-12-01T06:24:30.059Z,2.80
2022-12-01T06:25:52.137Z,2.80
2022-12-01T06:27:14.214Z,2.70
2022-12-01T06:28:36.249Z,2.80
2022-12-01T06:29:58.282Z,2.70
2022-12-01T06:31:20.492Z,2.70
2022-12-01T06:32:42.607Z,2.70
2022-12-01T06:34:04.627Z,2.70
2022-12-01T06:35:26.622Z,2.70
2022-12-01T06:36:48.857Z,2.70
2022-12-01T06:38:10.938Z,2.70
2022-12-01T06:39:33.017Z,2.70
2022-12-01T06:40:55.057Z,2.70
2022-12-01T06:42:17.033Z,2.70
2022-12-01T06:43:39.052Z,2.70
2022-12-01T06:45:01.065Z,2.80
2022-12-01T06:46:23.174Z,2.70
2022-12-01T06:47:47.956Z,2.80
2022-12-01T06:49:13.386Z,2.80
2022-12-01T06:50:35.430Z,2.70
2022-12-01T06:51:57.468Z,2.70
2022-12-01T06:53:19.494Z,2.70
2022-12-01T06:54:41.516Z,2.80
2022-12-01T06:56:05.193Z,2.80
2022-12-01T06:57:27.592Z,2.80
2022-12-01T06:58:50.548Z,2.80
2022-12-01T07:00:13.952Z,2.80
2022-12-01T07:01:36.366Z,2.80
2022-12-01T07:02:58.642Z,2.80
2022-12-01T07:04:20.923Z,2.80
2022-12-01T07:05:42.981Z,2.80
2022-12-01T07:07:06.172Z,2.80
2022-12-01T07:08:29.440Z,2.80
2022-12-01T07:09:51.676Z,2.80
2022-12-01T07:11:15.380Z,2.80
2022-12-01T07:12:37.745Z,2.80
2022-12-01T07:13:59.784Z,2.80
2022-12-01T07:15:23.335Z,2.80
2022-12-01T07:16:45.442Z,2.80
2022-12-01T07:18:07.540Z,2.80
2022-12-01T07:19:29.593Z,2.80
2022-12-01T07:20:51.700Z,2.80
2022-12-01T07:22:13.735Z,2.80
2022-12-01T07:23:35.983Z,2.80
2022-12-01T07:24:58.030Z,2.80
2022-12-01T07:26:20.127Z,2.80
2022-12-01T07:27:42.197Z,2.80
2022-12-01T07:29:04.350Z,2.80
2022-12-01T07:30:28.587Z,2.80
2022-12-01T07:31:50.839Z,2.80
2022-12-01T07:33:12.832Z,2.80
2022-12-01T07:34:34.990Z,2.80
2022-12-01T07:35:57.412Z,2.80
2022-12-01T07:37:19.442Z,2.80
2022-12-01T07:38:41.814Z,2.90
2022-12-01T07:40:04.389Z,2.90
2022-12-01T07:41:26.459Z,2.90
2022-12-01T07:42:48.566Z,2.90
2022-12-01T07:44:11.054Z,2.90
2022-12-01T07:45:34.282Z,2.90
2022-12-01T07:46:56.434Z,2.90
2022-12-01T07:48:18.453Z,2.90
2022-12-01T07:49:40.505Z,2.90
2022-12-01T07:51:02.816Z,2.90
2022-12-01T07:52:24.847Z,2.90
2022-12-01T07:53:49.197Z,2.90
2022-12-01T07:55:11.247Z,2.80
2022-12-01T07:56:33.838Z,2.90
2022-12-01T07:57:55.950Z,2.90
2022-12-01T07:59:18.010Z,2.90
2022-12-01T08:00:40.029Z,2.90
2022-12-01T08:02:02.146Z,2.90
2022-12-01T08:03:24.562Z,2.90
2022-12-01T08:04:46.609Z,2.90
2022-12-01T08:06:09.544Z,2.90
2022-12-01T08:07:31.654Z,2.90
2022-12-01T08:08:53.894Z,2.90
2022-12-01T08:10:16.283Z,2.90
2022-12-01T08:11:38.317Z,2.90
2022-12-01T08:13:00.425Z,2.90
2022-12-01T08:14:22.425Z,3.00
2022-12-01T08:15:44.557Z,3.00
2022-12-01T08:17:06.741Z,3.00
2022-12-01T08:18:29.003Z,2.90
2022-12-01T08:19:51.301Z,3.00
2022-12-01T08:21:16.638Z,2.90
2022-12-01T08:22:38.850Z,2.90
2022-12-01T08:24:01.030Z,2.90
2022-12-01T08:25:23.089Z,2.90
2022-12-01T08:26:45.100Z,2.90
2022-12-01T08:28:07.184Z,3.00
2022-12-01T08:29:29.219Z,3.00
2022-12-01T08:30:51.267Z,3.00
2022-12-01T08:32:13.363Z,3.00
2022-12-01T08:33:35.651Z,3.00
2022-12-01T08:34:57.680Z,3.00
2022-12-01T08:36:20.681Z,3.00
2022-12-01T08:37:42.720Z,3.00
2022-12-01T08:39:04.896Z,3.00
2022-12-01T08:40:26.899Z,3.00
2022-12-01T08:41:48.918Z,3.00
2022-12-01T08:43:23.141Z,3.00
2022-12-01T08:44:53.132Z,3.00
2022-12-01T08:46:15.302Z,3.00
2022-12-01T08:47:37.460Z,3.00
2022-12-01T08:48:59.899Z,3.10
2022-12-01T08:50:21.949Z,3.10
2022-12-01T08:51:44.108Z,3.10
2022-12-01T08:53:06.466Z,3.10
2022-12-01T08:54:28.585Z,3.10
2022-12-01T08:55:50.641Z,3.20
2022-12-01T08:57:12.951Z,3.20
2022-12-01T08:58:35.253Z,3.20
2022-12-01T08:59:57.522Z,3.20
2022-12-01T09:01:19.998Z,3.20
2022-12-01T09:02:42.145Z,3.20
2022-12-01T09:04:08.681Z,3.20
2022-12-01T09:05:31.091Z,3.20
2022-12-01T09:06:55.008Z,3.20
2022-12-01T09:08:32.205Z,3.20
2022-12-01T09:09:54.269Z,3.20
2022-12-01T09:11:18.282Z,3.20
2022-12-01T09:12:40.351Z,3.20
2022-12-01T09:14:02.462Z,3.20
2022-12-01T09:15:24.490Z,3.20
2022-12-01T09:16:49.667Z,3.20
2022-12-01T09:18:11.709Z,3.20
2022-12-01T09:19:34.021Z,3.20
2022-12-01T09:20:56.722Z,3.20
2022-12-01T09:22:18.871Z,3.20
2022-12-01T09:23:41.222Z,3.20
2022-12-01T09:25:03.334Z,3.20
2022-12-01T09:26:25.956Z,3.20
2022-12-01T09:27:48.086Z,3.20
2022-12-01T09:29:13.554Z,3.20
2022-12-01T09:30:35.885Z,3.20
2022-12-01T09:31:59.679Z,3.20
2022-12-01T09:33:21.827Z,3.20
2022-12-01T09:34:43.879Z,3.20
2022-12-01T09:36:08.321Z,3.20
2022-12-01T09:37:30.418Z,3.20
2022-12-01T09:38:52.802Z,3.20
2022-12-01T09:40:15.547Z,3.20
2022-12-01T09:41:45.395Z,3.20
2022-12-01T09:43:16.387Z,3.20
2022-12-01T09:44:53.526Z,3.20
2022-12-01T09:46:21.865Z,3.20
2022-12-01T09:47:46.729Z,3.30
2022-12-01T09:49:26.181Z,3.30
2022-12-01T09:50:48.212Z,3.30
2022-12-01T09:52:16.384Z,3.30
2022-12-01T09:53:38.832Z,3.30
2022-12-01T09:55:01.582Z,3.30
2022-12-01T09:56:40.396Z,3.30
2022-12-01T09:58:05.067Z,3.40
2022-12-01T09:59:33.033Z,3.40
2022-12-01T10:00:55.218Z,3.50
2022-12-01T10:02:36.001Z,3.50
2022-12-01T10:04:02.650Z,3.50
2022-12-01T10:05:30.566Z,3.50
2022-12-01T10:07:06.186Z,3.60
2022-12-01T10:08:33.801Z,3.60
2022-12-01T10:10:23.347Z,3.60
2022-12-01T10:11:47.737Z,3.60
2022-12-01T10:13:21.246Z,3.60
2022-12-01T10:14:46.299Z,3.70
2022-12-01T10:16:13.164Z,3.70
2022-12-01T10:17:40.982Z,3.60
2022-12-01T10:19:15.261Z,3.60
2022-12-01T10:20:50.638Z,3.60
2022-12-01T10:22:54.425Z,3.60
2022-12-01T10:24:43.763Z,3.60
2022-12-01T10:26:14.597Z,3.60
2022-12-01T10:27:55.289Z,3.60
2022-12-01T10:29:36.253Z,3.60
2022-12-01T10:31:08.193Z,3.70
2022-12-01T10:32:48.426Z,3.70
2022-12-01T10:34:27.589Z,3.80
2022-12-01T10:35:50.627Z,3.80
2022-12-01T10:37:31.402Z,3.90
2022-12-01T10:38:54.073Z,3.90
2022-12-01T10:40:17.057Z,3.90
2022-12-01T10:41:40.101Z,4.00
2022-12-01T10:43:02.818Z,4.00
2022-12-01T10:44:24.934Z,4.00
2022-12-01T10:45:47.157Z,4.00
2022-12-01T10:47:24.025Z,4.00
2022-12-01T10:49:11.106Z,4.00
2022-12-01T10:50:33.251Z,4.00
2022-12-01T10:51:58.482Z,4.00
2022-12-01T10:53:32.462Z,4.00
2022-12-01T10:54:54.512Z,3.90
2022-12-01T10:56:20.429Z,3.90
2022-12-01T10:57:45.547Z,3.90
2022-12-01T10:59:27.846Z,3.80
2022-12-01T11:01:04.717Z,3.80
2022-12-01T11:02:29.153Z,3.70
2022-12-01T11:04:02.200Z,3.70
2022-12-01T11:05:28.262Z,3.60
2022-12-01T11:06:51.329Z,3.60
2022-12-01T11:08:30.567Z,3.60
2022-12-01T11:10:13.629Z,3.70
2022-12-01T11:11:38.668Z,3.70
2022-12-01T11:13:23.586Z,3.70
2022-12-01T11:14:50.755Z,3.70
2022-12-01T11:16:37.149Z,3.70
2022-12-01T11:18:06.479Z,3.70
2022-12-01T11:19:34.065Z,3.80
2022-12-01T11:21:12.837Z,3.80
2022-12-01T11:22:35.049Z,3.80
2022-12-01T11:23:57.329Z,3.80
2022-12-01T11:25:21.659Z,3.80
2022-12-01T11:26:43.863Z,3.80
2022-12-01T11:28:06.411Z,3.80
2022-12-01T11:29:35.941Z,3.80
2022-12-01T11:31:03.811Z,3.80
2022-12-01T11:32:31.557Z,3.80
2022-12-01T11:33:56.168Z,3.80
2022-12-01T11:35:24.142Z,3.80
2022-12-01T11:36:53.076Z,3.90
2022-12-01T11:38:30.731Z,3.90
2022-12-01T11:39:53.237Z,3.90
2022-12-01T11:41:29.508Z,3.90
2022-12-01T11:42:58.649Z,3.80
2022-12-01T11:46:07.383Z,3.80
2022-12-01T11:47:29.558Z,3.80
2022-12-01T11:48:58.416Z,3.80
2022-12-01T11:50:26.635Z,3.80
2022-12-01T11:51:48.981Z,3.90
2022-12-01T11:53:29.652Z,3.90
2022-12-01T11:54:56.655Z,3.90
2022-12-01T11:56:25.769Z,3.90
2022-12-01T11:57:51.364Z,3.90
2022-12-01T11:59:18.438Z,3.90
2022-12-01T12:00:56.046Z,3.90
2022-12-01T12:02:34.861Z,3.90
2022-12-01T12:04:24.992Z,3.90
2022-12-01T12:06:31.822Z,3.90
2022-12-01T12:08:09.429Z,3.90
2022-12-01T12:10:00.619Z,3.90
2022-12-01T12:11:45.682Z,3.90
2022-12-01T12:13:16.853Z,3.90
2022-12-01T12:14:53.446Z,4.00
2022-12-01T12:16:36.868Z,3.90
2022-12-01T12:18:25.580Z,3.90
2022-12-01T12:20:07.611Z,3.90
2022-12-01T12:21:34.858Z,3.90
2022-12-01T12:23:12.365Z,3.90
2022-12-01T12:24:54.567Z,4.00
2022-12-01T12:26:28.077Z,4.00
2022-12-01T12:28:08.176Z,4.00
2022-12-01T12:29:33.070Z,4.10
2022-12-01T12:31:00.290Z,4.00
2022-12-01T12:32:33.914Z,4.00
2022-12-01T12:34:28.503Z,4.10
2022-12-01T12:36:01.221Z,4.10
2022-12-01T12:37:42.536Z,4.00
2022-12-01T12:39:31.774Z,4.10
2022-12-01T12:40:56.517Z,4.00
2022-12-01T12:42:36.615Z,4.00
2022-12-01T12:44:03.356Z,4.00
2022-12-01T12:45:45.657Z,4.00
2022-12-01T12:47:25.968Z,4.00
2022-12-01T12:49:19.250Z,4.00
2022-12-01T12:51:11.232Z,4.00
2022-12-01T12:52:37.094Z,4.00
2022-12-01T12:54:24.967Z,4.10
2022-12-01T12:55:50.858Z,4.10
2022-12-01T12:57:35.243Z,4.10
2022-12-01T12:58:58.443Z,4.20
2022-12-01T13:00:28.027Z,4.20
2022-12-01T13:02:08.934Z,4.10
2022-12-01T13:04:01.185Z,4.20
2022-12-01T13:06:06.991Z,4.10
2022-12-01T13:07:42.644Z,4.20
2022-12-01T13:09:19.415Z,4.10
2022-12-01T13:10:57.269Z,4.10
2022-12-01T13:12:28.607Z,4.10
2022-12-01T13:14:15.959Z,4.10
2022-12-01T13:15:39.482Z,4.00
2022-12-01T13:17:17.203Z,4.00
2022-12-01T13:18:53.991Z,4.00
2022-12-01T13:20:19.144Z,4.00
2022-12-01T13:21:45.866Z,4.00
2022-12-01T13:23:15.688Z,4.00
2022-12-01T13:24:37.797Z,4.00
2022-12-01T13:26:04.440Z,3.90
2022-12-01T13:27:31.569Z,3.90
2022-12-01T13:28:57.492Z,3.80
2022-12-01T13:30:23.927Z,3.80
2022-12-01T13:31:51.312Z,3.80
2022-12-01T13:33:16.357Z,3.70
2022-12-01T13:34:43.513Z,3.70
2022-12-01T13:37:54.410Z,3.70
2022-12-01T13:39:35.673Z,3.60
2022-12-01T13:41:17.842Z,3.60
2022-12-01T13:42:40.859Z,3.60
2022-12-01T13:44:07.539Z,3.60
2022-12-01T13:45:40.518Z,3.60
2022-12-01T13:47:11.680Z,3.60
2022-12-01T13:48:39.541Z,3.70
2022-12-01T13:50:36.465Z,3.60
2022-12-01T13:52:23.326Z,3.60
2022-12-01T13:54:05.906Z,3.60
2022-12-01T13:55:29.518Z,3.60
2022-12-01T13:57:05.016Z,3.60
2022-12-01T13:58:33.139Z,3.60
2022-12-01T14:00:01.211Z,3.60
2022-12-01T14:01:23.520Z,3.50
2022-12-01T14:02:45.877Z,3.50
2022-12-01T14:04:10.730Z,3.50
2022-12-01T14:05:41.660Z,3.50
2022-12-01T14:07:28.388Z,3.50
2022-12-01T14:08:52.773Z,3.50
2022-12-01T14:10:27.691Z,3.50
2022-12-01T14:12:29.064Z,3.50
2022-12-01T14:14:02.013Z,3.50
2022-12-01T14:15:31.537Z,3.50
2022-12-01T14:16:58.333Z,3.50
2022-12-01T14:18:33.159Z,3.50
2022-12-01T14:19:56.058Z,3.60
2022-12-01T14:21:43.354Z,3.60
2022-12-01T14:23:33.179Z,3.50
2022-12-01T14:24:55.859Z,3.50
2022-12-01T14:26:23.246Z,3.50
2022-12-01T14:27:46.452Z,3.40
2022-12-01T14:29:23.464Z,3.40
2022-12-01T14:30:45.799Z,3.40
2022-12-01T14:32:28.149Z,3.40
2022-12-01T14:33:58.709Z,3.40
2022-12-01T14:35:20.760Z,3.40
2022-12-01T14:36:48.746Z,3.40
2022-12-01T14:38:11.027Z,3.40
2022-12-01T14:39:37.263Z,3.40
2022-12-01T14:41:00.213Z,3.40
2022-12-01T14:42:56.053Z,3.40
2022-12-01T14:44:36.248Z,3.40
2022-12-01T14:46:10.451Z,3.40
2022-12-01T14:47:46.621Z,3.40
2022-12-01T14:49:21.460Z,3.40
2022-12-01T14:50:51.890Z,3.40
2022-12-01T14:52:27.664Z,3.40
2022-12-01T14:53:50.760Z,3.40
2022-12-01T14:55:16.853Z,3.50
2022-12-01T14:56:40.972Z,3.40
2022-12-01T14:58:07.141Z,3.40
2022-12-01T14:59:29.284Z,3.40
2022-12-01T15:01:03.566Z,3.40
2022-12-01T15:02:26.632Z,3.40
2022-12-01T15:03:51.402Z,3.40
2022-12-01T15:05:18.953Z,3.40
2022-12-01T15:06:41.304Z,3.40
2022-12-01T15:08:49.671Z,3.40
2022-12-01T15:10:04.202Z,3.40
2022-12-01T15:11:26.464Z,3.40
2022-12-01T15:12:49.765Z,3.40
2022-12-01T15:14:24.799Z,3.30
2022-12-01T15:15:52.337Z,3.40
2022-12-01T15:17:32.197Z,3.40
2022-12-01T15:18:54.692Z,3.40
2022-12-01T15:20:37.573Z,3.40
2022-12-01T15:22:04.996Z,3.40
2022-12-01T15:23:27.093Z,3.40
2022-12-01T15:24:49.623Z,3.40
2022-12-01T15:26:19.966Z,3.40
2022-12-01T15:27:43.782Z,3.40
2022-12-01T15:29:23.747Z,3.40
2022-12-01T15:30:48.589Z,3.40
2022-12-01T15:32:16.072Z,3.40
2022-12-01T15:33:48.805Z,3.30
2022-12-01T15:35:22.044Z,3.30
2022-12-01T15:36:45.550Z,3.30
2022-12-01T15:38:18.064Z,3.30
2022-12-01T15:39:45.091Z,3.30
2022-12-01T15:41:29.153Z,3.30
2022-12-01T15:43:35.021Z,3.30
2022-12-01T15:45:16.465Z,3.30
2022-12-01T15:46:38.586Z,3.40
2022-12-01T15:48:00.637Z,3.40
2022-12-01T15:49:32.918Z,3.40
2022-12-01T15:51:18.162Z,3.40
2022-12-01T15:52:44.618Z,3.40
2022-12-01T15:54:13.373Z,3.40
2022-12-01T15:55:38.000Z,3.40
2022-12-01T15:57:00.598Z,3.40
2022-12-01T15:58:30.261Z,3.30
2022-12-01T15:59:56.222Z,3.30
2022-12-01T16:01:20.842Z,3.30
2022-12-01T16:02:43.212Z,3.30
2022-12-01T16:04:21.485Z,3.30
2022-12-01T16:05:44.871Z,3.30
2022-12-01T16:07:09.952Z,3.30
2022-12-01T16:08:32.255Z,3.40
2022-12-01T16:09:59.580Z,3.40
2022-12-01T16:11:22.124Z,3.30
2022-12-01T16:12:44.436Z,3.30
2022-12-01T16:14:24.667Z,3.40
2022-12-01T16:15:46.685Z,3.40
2022-12-01T16:17:11.097Z,3.40
2022-12-01T16:18:33.881Z,3.40
2022-12-01T16:20:16.455Z,3.40
2022-12-01T16:21:46.664Z,3.40
2022-12-01T16:23:22.386Z,3.40
2022-12-01T16:24:47.438Z,3.40
2022-12-01T16:26:09.647Z,3.40
2022-12-01T16:27:32.258Z,3.40
2022-12-01T16:28:55.553Z,3.40
2022-12-01T16:30:26.430Z,3.40
2022-12-01T16:32:13.047Z,3.40
2022-12-01T16:33:37.624Z,3.40
2022-12-01T16:35:00.182Z,3.40
2022-12-01T16:36:26.705Z,3.40
2022-12-01T16:37:49.114Z,3.40
2022-12-01T16:39:15.544Z,3.50
2022-12-01T16:40:41.148Z,3.50
2022-12-01T16:42:03.271Z,3.50
2022-12-01T16:43:27.806Z,3.50
2022-12-01T16:44:51.549Z,3.50
2022-12-01T16:46:14.047Z,3.50
2022-12-01T16:47:36.230Z,3.50
2022-12-01T16:48:58.270Z,3.50
2022-12-01T16:50:22.472Z,3.50
2022-12-01T16:52:06.947Z,3.50
2022-12-01T16:53:26.703Z,3.50
2022-12-01T16:56:11.870Z,3.40
2022-12-01T16:57:33.894Z,3.40
2022-12-01T16:58:56.089Z,3.40
2022-12-01T17:00:18.523Z,3.40
2022-12-01T17:01:40.631Z,3.40
2022-12-01T17:03:04.358Z,3.40
2022-12-01T17:04:27.047Z,3.40
2022-12-01T17:05:49.904Z,3.40
2022-12-01T17:07:11.978Z,3.40
2022-12-01T17:08:34.291Z,3.40
2022-12-01T17:09:56.328Z,3.40
2022-12-01T17:11:18.592Z,3.40
2022-12-01T17:12:41.126Z,3.40
2022-12-01T17:14:03.232Z,3.40
2022-12-01T17:15:25.675Z,3.50
2022-12-01T17:16:47.691Z,3.50
2022-12-01T17:18:10.229Z,3.50
2022-12-01T17:19:32.307Z,3.50
2022-12-01T17:21:02.895Z,3.50
2022-12-01T17:22:25.043Z,3.50
2022-12-01T17:23:47.263Z,3.50
2022-12-01T17:25:09.718Z,3.50
2022-12-01T17:26:31.796Z,3.50
2022-12-01T17:27:53.936Z,3.50
2022-12-01T17:29:16.002Z,3.50
2022-12-01T17:30:38.263Z,3.50
2022-12-01T17:32:00.390Z,3.50
2022-12-01T17:33:22.440Z,3.50
2022-12-01T17:34:44.534Z,3.50
2022-12-01T17:36:10.380Z,3.50
2022-12-01T17:37:32.471Z,3.50
2022-12-01T17:38:54.494Z,3.40
2022-12-01T17:40:16.741Z,3.50
2022-12-01T17:41:38.773Z,3.50
2022-12-01T17:43:01.139Z,3.50
2022-12-01T17:44:23.401Z,3.50
2022-12-01T17:45:45.455Z,3.50
2022-12-01T17:47:07.540Z,3.50
2022-12-01T17:48:36.159Z,3.50
2022-12-01T17:49:58.267Z,3.50
2022-12-01T17:51:20.437Z,3.50
2022-12-01T17:52:42.539Z,3.50
2022-12-01T17:54:05.031Z,3.50
2022-12-01T17:55:27.077Z,3.50
2022-12-01T17:56:49.122Z,3.50
2022-12-01T17:58:11.247Z,3.50
2022-12-01T17:59:34.268Z,3.50
2022-12-01T18:00:56.297Z,3.50
2022-12-01T18:02:18.545Z,3.50
2022-12-01T18:03:40.634Z,3.50
2022-12-01T18:05:02.794Z,3.50
2022-12-01T18:06:25.583Z,3.50
2022-12-01T18:07:47.751Z,3.50
2022-12-01T18:09:09.891Z,3.50
2022-12-01T18:10:31.917Z,3.50
2022-12-01T18:11:58.713Z,3.50
2022-12-01T18:13:21.905Z,3.60
2022-12-01T18:14:43.989Z,3.50
2022-12-01T18:16:13.986Z,3.60
2022-12-01T18:17:36.497Z,3.60
2022-12-01T18:19:00.086Z,3.50
2022-12-01T18:20:22.276Z,3.50
2022-12-01T18:21:44.493Z,3.50
2022-12-01T18:23:06.557Z,3.50
2022-12-01T18:24:29.557Z,3.50
2022-12-01T18:25:51.669Z,3.50
2022-12-01T18:27:13.680Z,3.50
2022-12-01T18:28:36.733Z,3.50
2022-12-01T18:29:58.846Z,3.50
2022-12-01T18:31:21.233Z,3.50
2022-12-01T18:32:43.440Z,3.50
2022-12-01T18:34:06.895Z,3.50
2022-12-01T18:35:31.912Z,3.50
2022-12-01T18:36:54.280Z,3.50
2022-12-01T18:38:16.390Z,3.60
2022-12-01T18:39:38.494Z,3.50
2022-12-01T18:41:01.588Z,3.50
2022-12-01T18:42:24.385Z,3.50
2022-12-01T18:43:46.897Z,3.50
2022-12-01T18:45:09.330Z,3.50
2022-12-01T18:46:32.095Z,3.50
2022-12-01T18:47:54.193Z,3.40
2022-12-01T18:49:16.316Z,3.40
2022-12-01T18:50:38.345Z,3.40
2022-12-01T18:52:03.357Z,3.40
2022-12-01T18:53:25.406Z,3.40
2022-12-01T18:54:47.609Z,3.30
2022-12-01T18:56:12.016Z,3.30
2022-12-01T18:57:34.396Z,3.30
2022-12-01T18:59:00.829Z,3.30
2022-12-01T19:00:23.044Z,3.20
2022-12-01T19:01:49.188Z,3.20
2022-12-01T19:03:11.449Z,3.20
2022-12-01T19:04:33.526Z,3.20
2022-12-01T19:05:55.586Z,3.20
2022-12-01T19:07:17.646Z,3.20
2022-12-01T19:08:40.480Z,3.20
2022-12-01T19:10:02.550Z,3.20
2022-12-01T19:11:24.657Z,3.30
2022-12-01T19:12:46.725Z,3.30
2022-12-01T19:14:22.074Z,3.20
2022-12-01T19:15:44.234Z,3.20
2022-12-01T19:17:06.372Z,3.30
2022-12-01T19:18:28.400Z,3.20
2022-12-01T19:19:50.452Z,3.20
2022-12-01T19:21:15.446Z,3.20
2022-12-01T19:22:37.632Z,3.20
2022-12-01T19:23:59.683Z,3.20
2022-12-01T19:25:21.780Z,3.20